createdAt,value
2022-11-27T00:01:27.363Z,11.43
2022-11-27T00:03:55.751Z,11.63
2022-11-27T00:06:25.454Z,11.82
2022-11-27T00:08:52.418Z,11.62
2022-11-27T00:11:22.283Z,11.67
2022-11-27T00:13:49.904Z,11.58
2022-11-27T00:16:17.547Z,11.39
2022-11-27T00:18:45.482Z,11.60
2022-11-27T00:21:14.842Z,11.75
2022-11-27T00:23:41.829Z,11.58
2022-11-27T00:26:09.131Z,11.68
2022-11-27T00:28:36.499Z,11.53
2022-11-27T00:31:06.209Z,11.24
2022-11-27T00:33:33.493Z,11.21
2022-11-27T00:36:05.061Z,11.11
2022-11-27T00:38:35.960Z,11.56
2022-11-27T00:41:10.816Z,11.66
2022-11-27T00:43:44.187Z,11.71
2022-11-27T00:46:16.277Z,11.76
2022-11-27T00:48:43.527Z,11.54
2022-11-27T00:51:14.361Z,11.15
2022-11-27T00:53:41.204Z,11.16
2022-11-27T00:56:08.928Z,11.03
2022-11-27T00:58:35.668Z,11.05
2022-11-27T01:01:06.008Z,10.96
2022-11-27T01:03:33.345Z,11.28
2022-11-27T01:06:04.656Z,11.21
2022-11-27T01:08:31.927Z,11.33
2022-11-27T01:10:59.069Z,10.92
2022-11-27T01:13:28.260Z,11.25
2022-11-27T01:16:04.569Z,11.29
2022-11-27T01:18:31.707Z,11.12
2022-11-27T01:20:58.206Z,11.04
2022-11-27T01:23:24.901Z,11.13
2022-11-27T01:25:53.755Z,11.29
2022-11-27T01:28:22.317Z,10.71
2022-11-27T01:30:49.600Z,11.03
2022-11-27T01:33:16.424Z,11.34
2022-11-27T01:35:43.140Z,11.28
2022-11-27T01:38:09.780Z,11.57
2022-11-27T01:40:36.442Z,11.32
2022-11-27T01:43:03.082Z,11.16
2022-11-27T01:45:29.790Z,11.10
2022-11-27T01:48:01.630Z,11.21
2022-11-27T01:50:35.770Z,11.50
2022-11-27T01:53:15.780Z,10.92
2022-11-27T01:55:50.128Z,10.84
2022-11-27T01:58:22.469Z,10.63
2022-11-27T02:00:49.132Z,10.90
2022-11-27T02:03:16.331Z,10.70
2022-11-27T02:05:43.055Z,10.78
2022-11-27T02:08:12.792Z,11.22
2022-11-27T02:10:51.172Z,10.69
2022-11-27T02:13:47.137Z,10.97
2022-11-27T02:16:41.519Z,10.85
2022-11-27T02:19:20.273Z,10.69
2022-11-27T02:21:49.814Z,10.63
2022-11-27T02:24:38.215Z,10.91
2022-11-27T02:27:47.583Z,11.02
2022-11-27T02:30:14.569Z,10.97
2022-11-27T02:33:07.235Z,11.11
2022-11-27T02:35:41.372Z,10.73
2022-11-27T02:38:07.951Z,10.91
2022-11-27T02:40:44.725Z,10.70
2022-11-27T02:43:33.105Z,10.62
2022-11-27T02:46:02.129Z,10.37
2022-11-27T02:48:34.630Z,10.34
2022-11-27T02:51:04.660Z,10.50
2022-11-27T02:53:37.809Z,10.49
2022-11-27T02:56:12.823Z,10.40
2022-11-27T02:58:41.056Z,10.37
2022-11-27T03:01:10.580Z,10.23
2022-11-27T03:03:43.817Z,10.69
2022-11-27T03:06:14.554Z,10.24
2022-11-27T03:08:56.351Z,10.31
2022-11-27T03:11:23.147Z,10.27
2022-11-27T03:13:55.050Z,9.98
2022-11-27T03:16:46.135Z,10.14
2022-11-27T03:19:19.985Z,10.44
2022-11-27T03:21:57.403Z,10.16
2022-11-27T03:24:25.015Z,9.95
2022-11-27T03:26:52.299Z,10.08
2022-11-27T03:29:26.253Z,10.15
2022-11-27T03:31:52.967Z,10.23
2022-11-27T03:34:19.761Z,10.08
2022-11-27T03:36:46.451Z,10.08
2022-11-27T03:39:13.606Z,10.12
2022-11-27T03:41:59.124Z,9.93
2022-11-27T03:44:28.704Z,10.07
2022-11-27T03:47:04.258Z,9.92
2022-11-27T03:50:01.630Z,10.07
2022-11-27T03:53:03.848Z,9.80
2022-11-27T03:55:55.892Z,9.95
2022-11-27T03:58:36.385Z,9.95
2022-11-27T04:01:06.385Z,9.79
2022-11-27T04:03:33.712Z,9.68
2022-11-27T04:06:00.367Z,9.78
2022-11-27T04:08:27.261Z,9.96
2022-11-27T04:10:53.984Z,10.00
2022-11-27T04:13:20.706Z,10.17
2022-11-27T04:15:47.402Z,9.76
2022-11-27T04:18:14.439Z,9.64
2022-11-27T04:20:42.377Z,9.38
2022-11-27T04:23:10.034Z,9.40
2022-11-27T04:25:36.671Z,9.74
2022-11-27T04:28:03.520Z,10.08
2022-11-27T04:30:31.231Z,9.71
2022-11-27T04:32:58.008Z,9.58
2022-11-27T04:35:24.598Z,9.84
2022-11-27T04:37:51.238Z,9.84
2022-11-27T04:40:18.260Z,9.60
2022-11-27T04:42:44.974Z,9.52
2022-11-27T04:45:11.618Z,9.82
2022-11-27T04:47:38.307Z,9.34
2022-11-27T04:50:05.614Z,9.63
2022-11-27T04:52:32.312Z,9.48
2022-11-27T04:55:00.432Z,9.18
2022-11-27T04:57:28.187Z,9.42
2022-11-27T04:59:55.135Z,8.78
2022-11-27T05:02:22.267Z,8.88
2022-11-27T05:04:49.111Z,9.16
2022-11-27T05:07:15.778Z,9.57
2022-11-27T05:09:42.426Z,9.44
2022-11-27T05:12:09.175Z,9.46
2022-11-27T05:14:35.809Z,9.33
2022-11-27T05:17:02.584Z,9.32
2022-11-27T05:19:30.567Z,9.23
2022-11-27T05:21:57.878Z,9.37
2022-11-27T05:24:26.909Z,9.33
2022-11-27T05:26:54.358Z,9.50
2022-11-27T05:29:21.733Z,9.10
2022-11-27T05:31:48.519Z,9.41
2022-11-27T05:34:15.336Z,9.09
2022-11-27T05:36:42.658Z,8.87
2022-11-27T05:39:10.732Z,9.47
2022-11-27T05:41:39.165Z,9.32
2022-11-27T05:44:06.079Z,9.11
2022-11-27T05:46:33.567Z,8.73
2022-11-27T05:49:00.251Z,9.39
2022-11-27T05:51:26.995Z,9.52
2022-11-27T05:53:53.703Z,9.60
2022-11-27T05:56:20.379Z,8.84
2022-11-27T05:58:48.353Z,9.36
2022-11-27T06:01:17.350Z,9.10
2022-11-27T06:03:44.426Z,9.14
2022-11-27T06:06:16.904Z,9.24
2022-11-27T06:08:44.279Z,8.71
2022-11-27T06:11:17.689Z,8.94
2022-11-27T06:13:45.580Z,8.87
2022-11-27T06:16:19.257Z,9.42
2022-11-27T06:18:48.582Z,8.78
2022-11-27T06:21:15.355Z,8.89
2022-11-27T06:23:43.474Z,8.69
2022-11-27T06:26:22.717Z,8.76
2022-11-27T06:28:50.317Z,8.65
2022-11-27T06:31:19.730Z,8.78
2022-11-27T06:33:47.761Z,8.42
2022-11-27T06:36:14.507Z,8.54
2022-11-27T06:38:41.581Z,8.97
2022-11-27T06:41:20.015Z,8.51
2022-11-27T06:43:46.886Z,8.74
2022-11-27T06:46:16.848Z,8.80
2022-11-27T06:48:45.313Z,8.67
2022-11-27T06:51:14.445Z,8.99
2022-11-27T06:53:41.495Z,8.81
2022-11-27T06:56:14.019Z,8.45
2022-11-27T06:58:41.166Z,8.49
2022-11-27T07:01:15.879Z,8.61
2022-11-27T07:03:43.184Z,8.67
2022-11-27T07:06:12.242Z,8.25
2022-11-27T07:08:39.445Z,8.22
2022-11-27T07:11:09.313Z,8.35
2022-11-27T07:13:35.996Z,8.77
2022-11-27T07:16:05.506Z,8.66
2022-11-27T07:18:36.299Z,8.63
2022-11-27T07:21:03.142Z,8.52
2022-11-27T07:23:30.206Z,8.07
2022-11-27T07:25:56.942Z,8.36
2022-11-27T07:28:23.898Z,8.71
2022-11-27T07:30:58.471Z,8.67
2022-11-27T07:33:25.953Z,8.63
2022-11-27T07:36:04.323Z,8.33
2022-11-27T07:38:30.994Z,8.69
2022-11-27T07:41:02.088Z,8.86
2022-11-27T07:43:29.506Z,8.67
2022-11-27T07:45:56.955Z,8.38
2022-11-27T07:48:24.001Z,8.30
2022-11-27T07:50:50.687Z,8.54
2022-11-27T07:53:17.609Z,8.71
2022-11-27T07:55:44.228Z,8.19
2022-11-27T07:58:10.895Z,8.36
2022-11-27T08:00:37.696Z,8.32
2022-11-27T08:03:04.458Z,8.87
2022-11-27T08:05:34.561Z,8.58
2022-11-27T08:08:04.201Z,8.66
2022-11-27T08:10:34.415Z,8.25
2022-11-27T08:13:01.050Z,8.50
2022-11-27T08:15:27.737Z,8.78
2022-11-27T08:17:54.373Z,8.79
2022-11-27T08:20:21.232Z,8.83
2022-11-27T08:22:48.032Z,8.96
2022-11-27T08:25:15.185Z,9.03
2022-11-27T08:27:42.619Z,9.24
2022-11-27T08:30:09.944Z,9.09
2022-11-27T08:32:40.790Z,9.27
2022-11-27T08:35:07.936Z,9.48
2022-11-27T08:37:35.485Z,9.66
2022-11-27T08:40:02.624Z,9.42
2022-11-27T08:42:29.320Z,9.58
2022-11-27T08:44:55.972Z,9.38
2022-11-27T08:47:22.640Z,9.46
2022-11-27T08:49:49.340Z,10.12
2022-11-27T08:52:16.119Z,10.11
2022-11-27T08:54:42.973Z,9.55
2022-11-27T08:57:09.775Z,9.85
2022-11-27T08:59:36.362Z,9.30
2022-11-27T09:02:03.026Z,9.75
2022-11-27T09:04:29.901Z,9.35
2022-11-27T09:06:58.609Z,9.20
2022-11-27T09:09:25.605Z,9.94
2022-11-27T09:11:54.488Z,10.20
2022-11-27T09:14:21.119Z,9.58
2022-11-27T09:16:47.898Z,9.82
2022-11-27T09:19:14.666Z,8.92
2022-11-27T09:21:41.362Z,9.07
2022-11-27T09:24:09.522Z,9.17
2022-11-27T09:26:36.209Z,9.90
2022-11-27T09:29:03.950Z,9.92
2022-11-27T09:31:30.783Z,10.27
2022-11-27T09:33:58.545Z,10.61
2022-11-27T09:36:26.475Z,10.69
2022-11-27T09:38:53.567Z,10.78
2022-11-27T09:41:28.984Z,10.59
2022-11-27T09:43:59.411Z,10.10
2022-11-27T09:46:39.689Z,10.10
2022-11-27T09:49:14.849Z,10.45
2022-11-27T09:51:58.538Z,11.13
2022-11-27T09:54:35.150Z,11.04
2022-11-27T09:57:03.182Z,11.10
2022-11-27T09:59:43.583Z,11.60
2022-11-27T10:02:19.339Z,11.22
2022-11-27T10:05:12.124Z,11.57
2022-11-27T10:07:37.027Z,10.69
2022-11-27T10:10:36.200Z,10.87
2022-11-27T10:13:23.095Z,11.03
2022-11-27T10:16:08.050Z,11.05
2022-11-27T10:18:42.689Z,10.71
2022-11-27T10:21:23.475Z,10.68
2022-11-27T10:24:17.598Z,10.74
2022-11-27T10:26:48.024Z,11.05
2022-11-27T10:29:36.264Z,10.48
2022-11-27T10:32:52.933Z,10.98
2022-11-27T10:35:16.806Z,11.21
2022-11-27T10:37:49.150Z,10.75
2022-11-27T10:40:23.459Z,10.51
2022-11-27T10:43:18.683Z,10.86
2022-11-27T10:45:59.450Z,11.44
2022-11-27T10:48:28.432Z,12.01
2022-11-27T10:50:55.999Z,11.54
2022-11-27T10:53:35.055Z,12.05
2022-11-27T10:56:21.433Z,11.87
2022-11-27T10:59:00.349Z,11.59
2022-11-27T11:01:40.637Z,11.43
2022-11-27T11:04:31.358Z,12.12
2022-11-27T11:06:57.067Z,11.93
2022-11-27T11:09:25.656Z,11.56
2022-11-27T11:11:52.392Z,11.33
2022-11-27T11:14:25.302Z,11.45
2022-11-27T11:16:54.162Z,11.31
2022-11-27T11:19:32.407Z,11.41
2022-11-27T11:22:00.670Z,11.60
2022-11-27T11:24:33.397Z,11.24
2022-11-27T11:27:05.258Z,11.98
2022-11-27T11:29:31.889Z,11.51
2022-11-27T11:32:14.757Z,11.29
2022-11-27T11:34:45.626Z,11.55
2022-11-27T11:37:20.695Z,11.27
2022-11-27T11:39:55.552Z,11.25
2022-11-27T11:42:25.401Z,11.49
2022-11-27T11:45:06.863Z,11.55
2022-11-27T11:47:33.801Z,11.37
2022-11-27T11:50:01.216Z,10.82
2022-11-27T11:52:56.777Z,11.45
2022-11-27T11:55:34.568Z,11.54
2022-11-27T11:58:40.284Z,10.86
2022-11-27T12:01:27.460Z,11.36
2022-11-27T12:04:17.672Z,11.40
2022-11-27T12:06:58.976Z,11.20
2022-11-27T12:09:50.531Z,11.29
2022-11-27T12:12:29.215Z,10.93
2022-11-27T12:15:14.698Z,11.21
2022-11-27T12:17:49.977Z,10.67
2022-11-27T12:20:30.717Z,11.01
2022-11-27T12:23:03.566Z,10.78
2022-11-27T12:25:38.102Z,11.67
2022-11-27T12:28:37.993Z,11.38
2022-11-27T12:31:18.628Z,11.47
2022-11-27T12:34:06.144Z,11.52
2022-11-27T12:36:47.964Z,11.72
2022-11-27T12:39:29.382Z,11.57
2022-11-27T12:42:02.484Z,11.71
2022-11-27T12:44:50.339Z,12.14
2022-11-27T12:47:38.817Z,11.38
2022-11-27T12:50:18.615Z,11.47
2022-11-27T12:53:03.355Z,11.06
2022-11-27T12:55:33.705Z,11.10
2022-11-27T12:58:09.487Z,10.97
2022-11-27T13:00:41.168Z,11.26
2022-11-27T13:03:30.980Z,11.65
2022-11-27T13:06:05.626Z,10.99
2022-11-27T13:08:52.254Z,11.60
2022-11-27T13:11:20.591Z,11.54
2022-11-27T13:13:52.078Z,11.62
2022-11-27T13:16:24.664Z,11.39
2022-11-27T13:19:10.894Z,11.54
2022-11-27T13:21:39.270Z,11.44
2022-11-27T13:24:06.401Z,11.61
2022-11-27T13:26:44.949Z,11.38
2022-11-27T13:29:33.754Z,11.01
2022-11-27T13:32:02.953Z,11.42
2022-11-27T13:34:31.987Z,10.98
2022-11-27T13:37:06.181Z,11.17
2022-11-27T13:39:39.823Z,11.10
2022-11-27T13:42:18.077Z,11.32
2022-11-27T13:44:53.758Z,11.48
2022-11-27T13:47:23.035Z,11.16
2022-11-27T13:50:11.790Z,10.85
2022-11-27T13:52:49.639Z,11.17
2022-11-27T13:55:30.691Z,11.29
2022-11-27T13:57:59.504Z,11.17
2022-11-27T14:00:41.804Z,11.23
2022-11-27T14:03:21.589Z,11.26
2022-11-27T14:05:48.422Z,11.18
2022-11-27T14:08:35.274Z,11.49
2022-11-27T14:11:07.288Z,11.27
2022-11-27T14:13:45.102Z,11.05
2022-11-27T14:16:31.540Z,11.23
2022-11-27T14:19:03.850Z,11.55
2022-11-27T14:21:40.870Z,11.73
2022-11-27T14:24:25.743Z,11.47
2022-11-27T14:26:55.914Z,11.81
2022-11-27T14:29:25.539Z,11.67
2022-11-27T14:32:01.164Z,11.22
2022-11-27T14:34:28.851Z,11.15
2022-11-27T14:36:56.247Z,11.37
2022-11-27T14:39:25.696Z,11.26
2022-11-27T14:42:04.744Z,11.30
2022-11-27T14:44:32.424Z,11.05
2022-11-27T14:47:05.641Z,10.91
2022-11-27T14:49:33.836Z,10.90
2022-11-27T14:52:05.441Z,10.74
2022-11-27T14:54:37.164Z,10.76
2022-11-27T14:57:05.504Z,10.15
2022-11-27T14:59:32.480Z,10.41
2022-11-27T15:02:03.145Z,10.34
2022-11-27T15:04:34.886Z,10.20
2022-11-27T15:07:05.345Z,10.64
2022-11-27T15:09:34.659Z,10.57
2022-11-27T15:12:15.137Z,10.81
2022-11-27T15:14:49.220Z,10.42
2022-11-27T15:17:25.504Z,10.49
2022-11-27T15:19:52.941Z,11.03
2022-11-27T15:22:20.068Z,10.69
2022-11-27T15:24:46.752Z,10.77
2022-11-27T15:27:20.201Z,10.29
2022-11-27T15:29:49.903Z,10.85
2022-11-27T15:32:22.982Z,10.01
2022-11-27T15:34:51.149Z,10.27
2022-11-27T15:37:28.151Z,10.25
2022-11-27T15:39:56.154Z,9.65
2022-11-27T15:42:23.322Z,10.36
2022-11-27T15:44:56.142Z,10.14
2022-11-27T15:47:31.070Z,10.29
2022-11-27T15:49:58.611Z,10.09
2022-11-27T15:52:26.084Z,10.35
2022-11-27T15:54:53.060Z,10.09
2022-11-27T15:57:19.832Z,10.33
2022-11-27T15:59:46.440Z,10.25
2022-11-27T16:02:17.857Z,9.76
2022-11-27T16:04:45.061Z,9.95
2022-11-27T16:07:11.832Z,9.96
2022-11-27T16:09:39.683Z,9.72
2022-11-27T16:12:06.515Z,9.92
2022-11-27T16:14:33.214Z,9.87
2022-11-27T16:17:01.374Z,9.84
2022-11-27T16:19:28.281Z,9.94
2022-11-27T16:21:54.907Z,9.97
2022-11-27T16:24:21.544Z,9.93
2022-11-27T16:26:48.274Z,9.49
2022-11-27T16:29:14.982Z,9.11
2022-11-27T16:31:41.807Z,9.63
2022-11-27T16:34:08.566Z,9.90
2022-11-27T16:36:41.549Z,10.32
2022-11-27T16:39:08.242Z,9.92
2022-11-27T16:41:35.062Z,9.71
2022-11-27T16:44:10.601Z,9.77
2022-11-27T16:46:39.189Z,9.74
2022-11-27T16:49:06.775Z,9.84
2022-11-27T16:51:34.796Z,9.67
2022-11-27T16:54:04.504Z,9.57
2022-11-27T16:56:33.260Z,9.52
2022-11-27T16:59:03.550Z,9.40
2022-11-27T17:01:36.023Z,9.41
2022-11-27T17:04:04.883Z,9.23
2022-11-27T17:06:33.445Z,9.61
2022-11-27T17:09:03.133Z,9.47
2022-11-27T17:11:33.784Z,9.72
2022-11-27T17:14:05.409Z,9.71
2022-11-27T17:16:33.544Z,9.89
2022-11-27T17:19:00.605Z,9.69
2022-11-27T17:21:30.182Z,9.77
2022-11-27T17:23:59.178Z,10.02
2022-11-27T17:26:27.843Z,10.00
2022-11-27T17:28:59.525Z,9.60
2022-11-27T17:31:30.661Z,9.92
2022-11-27T17:33:57.537Z,9.91
2022-11-27T17:36:25.504Z,9.46
2022-11-27T17:38:53.576Z,9.59
2022-11-27T17:41:21.463Z,9.71
2022-11-27T17:43:48.729Z,9.97
2022-11-27T17:46:21.755Z,9.98
2022-11-27T17:48:50.829Z,9.67
2022-11-27T17:51:19.424Z,9.65
2022-11-27T17:53:47.610Z,10.16
2022-11-27T17:56:17.105Z,9.87
2022-11-27T17:58:46.438Z,9.76
2022-11-27T18:01:21.837Z,9.79
2022-11-27T18:03:51.203Z,9.64
2022-11-27T18:06:19.407Z,9.84
2022-11-27T18:08:47.542Z,9.68
2022-11-27T18:11:27.725Z,9.93
2022-11-27T18:13:56.472Z,10.26
2022-11-27T18:16:31.946Z,10.34
2022-11-27T18:19:02.017Z,9.55
2022-11-27T18:21:28.758Z,9.94
2022-11-27T18:27:07.291Z,10.13
2022-11-27T18:29:29.461Z,9.35
2022-11-27T18:31:56.180Z,9.92
2022-11-27T18:34:22.923Z,10.01
2022-11-27T18:36:49.565Z,9.97
2022-11-27T18:39:16.325Z,9.95
2022-11-27T18:41:42.930Z,9.97
2022-11-27T18:44:09.849Z,10.05
2022-11-27T18:46:38.329Z,10.36
2022-11-27T18:49:05.536Z,9.58
2022-11-27T18:51:32.699Z,9.38
2022-11-27T18:53:59.475Z,9.75
2022-11-27T18:56:29.540Z,10.06
2022-11-27T18:59:03.216Z,10.08
2022-11-27T19:01:38.203Z,9.62
2022-11-27T19:04:07.942Z,10.17
2022-11-27T19:06:36.241Z,9.97
2022-11-27T19:09:03.203Z,10.00
2022-11-27T19:11:30.933Z,9.88
2022-11-27T19:13:58.575Z,9.85
2022-11-27T19:16:29.052Z,10.30
2022-11-27T19:18:57.721Z,10.55
2022-11-27T19:21:26.888Z,10.41
2022-11-27T19:23:57.613Z,10.25
2022-11-27T19:26:34.984Z,10.52
2022-11-27T19:29:08.100Z,10.04
2022-11-27T19:31:38.606Z,10.41
2022-11-27T19:34:06.763Z,10.07
2022-11-27T19:36:35.234Z,10.32
2022-11-27T19:39:08.403Z,10.29
2022-11-27T19:41:35.328Z,9.95
2022-11-27T19:44:04.639Z,10.12
2022-11-27T19:46:33.806Z,10.45
2022-11-27T19:49:08.922Z,10.35
2022-11-27T19:51:38.456Z,10.22
2022-11-27T19:54:09.889Z,9.78
2022-11-27T19:56:40.092Z,9.33
2022-11-27T19:59:08.416Z,10.08
2022-11-27T20:01:37.502Z,9.98
2022-11-27T20:04:04.391Z,10.57
2022-11-27T20:06:31.605Z,10.20
2022-11-27T20:09:02.561Z,10.55
2022-11-27T20:11:34.100Z,10.58
2022-11-27T20:14:04.283Z,10.35
2022-11-27T20:16:32.767Z,9.61
2022-11-27T20:19:01.168Z,10.05
2022-11-27T20:21:27.949Z,10.01
2022-11-27T20:23:55.106Z,10.24
2022-11-27T20:26:25.347Z,10.86
2022-11-27T20:28:54.804Z,10.91
2022-11-27T20:31:25.004Z,10.37
2022-11-27T20:33:55.307Z,9.85
2022-11-27T20:36:23.165Z,9.72
2022-11-27T20:38:52.071Z,10.23
2022-11-27T20:41:20.657Z,10.34
2022-11-27T20:43:50.744Z,10.55
2022-11-27T20:46:18.218Z,10.17
2022-11-27T20:48:46.724Z,10.48
2022-11-27T20:51:16.157Z,10.53
2022-11-27T20:53:45.670Z,10.29
2022-11-27T20:56:14.662Z,10.00
2022-11-27T20:58:43.141Z,10.13
2022-11-27T21:01:20.673Z,10.17
2022-11-27T21:03:50.042Z,10.86
2022-11-27T21:06:19.127Z,10.71
2022-11-27T21:08:46.525Z,10.00
2022-11-27T21:11:16.691Z,9.61
2022-11-27T21:13:44.690Z,10.03
2022-11-27T21:16:14.165Z,10.44
2022-11-27T21:18:40.934Z,9.60
2022-11-27T21:21:13.123Z,10.35
2022-11-27T21:23:41.257Z,10.46
2022-11-27T21:26:09.418Z,10.54
2022-11-27T21:28:36.107Z,10.62
2022-11-27T21:31:18.308Z,10.70
2022-11-27T21:33:53.373Z,10.00
2022-11-27T21:36:22.603Z,10.28
2022-11-27T21:38:49.549Z,10.09
2022-11-27T21:41:17.746Z,10.06
2022-11-27T21:43:45.942Z,9.63
2022-11-27T21:46:17.350Z,10.27
2022-11-27T21:48:48.600Z,10.54
2022-11-27T21:51:15.868Z,10.26
2022-11-27T21:53:44.311Z,10.20
2022-11-27T21:56:14.364Z,10.21
2022-11-27T21:58:41.819Z,9.98
2022-11-27T22:01:17.757Z,10.28
2022-11-27T22:03:47.009Z,10.76
2022-11-27T22:06:15.646Z,9.83
2022-11-27T22:08:44.801Z,10.01
2022-11-27T22:11:14.138Z,10.31
2022-11-27T22:13:41.723Z,10.51
2022-11-27T22:16:13.751Z,10.07
2022-11-27T22:18:40.511Z,9.80
2022-11-27T22:21:10.389Z,10.47
2022-11-27T22:23:37.732Z,10.10
2022-11-27T22:26:07.300Z,10.71
2022-11-27T22:28:37.984Z,9.81
2022-11-27T22:31:32.992Z,9.67
2022-11-27T22:34:00.879Z,10.44
2022-11-27T22:36:34.625Z,10.32
2022-11-27T22:39:04.702Z,9.64
2022-11-27T22:41:36.065Z,10.01
2022-11-27T22:44:29.503Z,10.51
2022-11-27T22:46:57.349Z,10.38
2022-11-27T22:49:24.043Z,10.41
2022-11-27T22:51:50.746Z,10.41
2022-11-27T22:54:17.744Z,10.26
2022-11-27T22:56:45.810Z,9.98
2022-11-27T23:02:00.270Z,10.79
2022-11-27T23:04:27.122Z,9.95
2022-11-27T23:06:53.983Z,10.40
2022-11-27T23:09:20.615Z,10.75
2022-11-27T23:11:48.040Z,10.64
2022-11-27T23:14:14.727Z,10.17
2022-11-27T23:16:41.522Z,10.77
2022-11-27T23:19:09.088Z,10.59
2022-11-27T23:21:37.655Z,9.65
2022-11-27T23:24:05.752Z,10.33
2022-11-27T23:26:32.753Z,9.75
2022-11-27T23:28:59.510Z,9.95
2022-11-27T23:31:31.093Z,10.31
2022-11-27T23:34:01.568Z,10.39
2022-11-27T23:36:29.839Z,10.57
2022-11-27T23:38:56.540Z,10.43
2022-11-27T23:41:24.664Z,10.67
2022-11-27T23:43:52.664Z,10.47
2022-11-27T23:46:22.850Z,10.52
2022-11-27T23:48:49.712Z,10.65
2022-11-27T23:51:19.200Z,10.10
2022-11-27T23:53:46.365Z,10.30
2022-11-27T23:56:32.347Z,10.27
2022-11-27T23:59:00.040Z,10.39
